Time;durP1;ratioP1;P1;durP2;ratioP2;P2;SDS_P1;SDS_P2;PMS_P1;PMS_P2;Temp;Humidity;BMP_temperature;BMP_pressure;BME280_temperature;BME280_humidity;BME280_pressure;Samples;Min_cycle;Max_cycle;Signal;HPM_P1;HPM_P2
2022/05/25 00:01:10;;;;;;;5.07;3.53;;;13.60;99.90;;;;;;5024516;28;20192;-79
2022/05/25 00:03:38;;;;;;;4.10;3.47;;;13.60;99.90;;;;;;5019447;28;20218;-78
2022/05/25 00:06:07;;;;;;;4.13;3.20;;;13.60;99.90;;;;;;5020018;28;20220;-79
2022/05/25 00:08:34;;;;;;;4.60;3.33;;;13.60;99.90;;;;;;5022203;28;20199;-78
2022/05/25 00:11:01;;;;;;;3.53;3.10;;;13.50;99.90;;;;;;5020874;28;20715;-78
2022/05/25 00:13:30;;;;;;;6.83;6.33;;;13.60;99.90;;;;;;5022402;28;20663;-79
2022/05/25 00:15:57;;;;;;;7.20;6.70;;;13.60;99.90;;;;;;5018599;28;20191;-78
2022/05/25 00:18:24;;;;;;;6.50;6.00;;;13.60;99.90;;;;;;5030257;28;20668;-78
2022/05/25 00:20:50;;;;;;;7.13;6.63;;;13.60;99.90;;;;;;5018804;28;20191;-78
2022/05/25 00:23:17;;;;;;;7.13;6.43;;;13.60;99.90;;;;;;5020204;28;20204;-77
2022/05/25 00:25:44;;;;;;;6.13;5.70;;;13.60;99.90;;;;;;5038868;28;20318;-78
2022/05/25 00:28:13;;;;;;;6.87;6.37;;;13.60;99.90;;;;;;5019580;28;20196;-79
2022/05/25 00:30:43;;;;;;;6.80;6.17;;;13.50;99.90;;;;;;5020965;28;20201;-78
2022/05/25 00:33:11;;;;;;;6.70;6.20;;;13.60;99.90;;;;;;5021174;28;20590;-77
2022/05/25 00:35:39;;;;;;;6.40;5.93;;;13.50;99.90;;;;;;5009332;28;20196;-79
2022/05/25 00:38:09;;;;;;;6.33;5.93;;;13.60;99.90;;;;;;5016864;28;20196;-78
2022/05/25 00:40:38;;;;;;;6.30;5.90;;;13.60;99.90;;;;;;5023717;28;20191;-78
2022/05/25 00:43:06;;;;;;;6.40;5.87;;;13.50;99.90;;;;;;5018324;28;20228;-79
2022/05/25 00:45:39;;;;;;;5.80;5.50;;;13.50;99.90;;;;;;5023277;28;20269;-77
2022/05/25 00:48:09;;;;;;;5.73;5.40;;;13.60;99.90;;;;;;5020487;28;20243;-78
2022/05/25 00:53:18;;;;;;;6.10;5.70;;;13.50;99.90;;;;;;5021566;28;20285;-78
2022/05/25 00:55:46;;;;;;;6.00;5.60;;;13.50;99.90;;;;;;5018274;28;20445;-78
2022/05/25 00:58:13;;;;;;;5.97;5.47;;;13.60;99.90;;;;;;5015660;28;20197;-79
2022/05/25 01:00:39;;;;;;;5.70;5.40;;;13.50;99.90;;;;;;5038714;28;20200;-79
2022/05/25 01:03:11;;;;;;;6.10;5.70;;;13.60;99.90;;;;;;5020320;28;20254;-78
2022/05/25 01:05:43;;;;;;;5.97;5.60;;;13.60;99.90;;;;;;5011111;28;20195;-78
2022/05/25 01:08:26;;;;;;;6.27;5.87;;;13.60;99.90;;;;;;5016797;28;20250;-79
2022/05/25 01:11:04;;;;;;;5.90;5.50;;;13.60;99.90;;;;;;5014620;28;20195;-78
2022/05/25 01:13:39;;;;;;;6.00;5.60;;;13.60;99.90;;;;;;5021739;28;20219;-78
2022/05/25 01:16:17;;;;;;;6.70;6.20;;;13.60;99.90;;;;;;5019948;28;20199;-77
2022/05/25 01:18:50;;;;;;;6.50;6.00;;;13.60;99.90;;;;;;5010321;28;20237;-78
2022/05/25 01:21:25;;;;;;;6.40;5.90;;;13.60;99.90;;;;;;5022598;28;20269;-79
2022/05/25 01:24:12;;;;;;;6.17;5.63;;;13.60;99.90;;;;;;5022127;28;20211;-78
2022/05/25 01:27:06;;;;;;;6.27;5.87;;;13.60;99.90;;;;;;5012010;28;20196;-79
2022/05/25 01:29:53;;;;;;;6.07;5.67;;;13.60;99.90;;;;;;5014564;28;20204;-79
2022/05/25 01:32:33;;;;;;;6.67;6.00;;;13.60;99.90;;;;;;5030585;28;20225;-79
2022/05/25 01:35:06;;;;;;;6.17;5.77;;;13.70;99.90;;;;;;5015482;28;20241;-79
2022/05/25 01:37:41;;;;;;;6.20;5.70;;;13.70;99.90;;;;;;5020398;28;20197;-78
2022/05/25 01:40:15;;;;;;;6.30;5.70;;;13.60;99.90;;;;;;5019633;28;20199;-78
2022/05/25 01:42:47;;;;;;;5.83;5.53;;;13.60;99.90;;;;;;5024647;28;20246;-79
2022/05/25 01:45:17;;;;;;;6.43;5.97;;;13.60;99.90;;;;;;5037855;28;20204;-79
2022/05/25 01:47:49;;;;;;;6.43;5.93;;;13.60;99.90;;;;;;5017333;28;20188;-79
2022/05/25 01:50:20;;;;;;;6.17;5.77;;;13.60;99.90;;;;;;5029960;28;20232;-79
2022/05/25 01:52:52;;;;;;;6.30;5.90;;;13.60;99.90;;;;;;5035514;28;20306;-79
2022/05/25 01:55:29;;;;;;;6.30;5.90;;;13.70;99.90;;;;;;5019777;28;20203;-79
2022/05/25 01:57:59;;;;;;;6.40;6.00;;;13.80;99.90;;;;;;5033048;28;20664;-78
2022/05/25 02:00:31;;;;;;;6.70;6.30;;;13.80;99.90;;;;;;5021995;28;20714;-78
2022/05/25 02:05:53;;;;;;;6.67;6.17;;;13.70;99.90;;;;;;5032456;28;20199;-78
2022/05/25 02:08:32;;;;;;;6.80;6.27;;;13.70;99.90;;;;;;5034526;28;20304;-79
2022/05/25 02:11:09;;;;;;;6.40;6.00;;;13.60;99.90;;;;;;5022167;28;20204;-80
2022/05/25 02:13:55;;;;;;;6.97;6.47;;;13.60;99.90;;;;;;5024267;28;20227;-78
2022/05/25 02:16:35;;;;;;;6.90;6.30;;;13.50;99.90;;;;;;5023123;28;20578;-79
2022/05/25 02:19:09;;;;;;;6.83;6.37;;;13.50;99.90;;;;;;5017329;28;20736;-79
2022/05/25 02:21:44;;;;;;;6.60;6.10;;;13.50;99.90;;;;;;5028052;28;20203;-78
2022/05/25 02:24:16;;;;;;;7.40;6.80;;;13.50;99.90;;;;;;5022772;28;20226;-79
2022/05/25 02:26:48;;;;;;;6.70;6.27;;;13.50;99.90;;;;;;5018820;28;20226;-79
2022/05/25 02:29:20;;;;;;;6.60;6.20;;;13.50;99.90;;;;;;5024283;28;20210;-78
2022/05/25 02:31:52;;;;;;;6.50;6.10;;;13.50;99.90;;;;;;5021387;28;20578;-78
2022/05/25 02:34:21;;;;;;;6.50;6.00;;;13.50;99.90;;;;;;5034029;28;20198;-79
2022/05/25 02:36:50;;;;;;;6.57;6.07;;;13.50;99.90;;;;;;5034642;28;20201;-79
2022/05/25 02:39:17;;;;;;;7.03;6.63;;;13.50;99.90;;;;;;5038945;28;20207;-79
2022/05/25 02:41:49;;;;;;;6.67;6.27;;;13.40;99.90;;;;;;5037639;28;20713;-78
2022/05/25 02:44:16;;;;;;;6.70;6.30;;;13.40;99.90;;;;;;5022045;28;20234;-79
2022/05/25 02:46:44;;;;;;;6.60;6.10;;;13.40;99.90;;;;;;5024844;28;20292;-80
2022/05/25 02:49:12;;;;;;;6.40;6.00;;;13.40;99.90;;;;;;5024760;28;20204;-79
2022/05/25 02:51:40;;;;;;;7.03;6.50;;;13.40;99.90;;;;;;5011493;28;20194;-80
2022/05/25 02:54:08;;;;;;;6.97;6.47;;;13.30;99.90;;;;;;5018868;28;20230;-79
2022/05/25 02:56:35;;;;;;;6.87;6.30;;;13.30;99.90;;;;;;5021750;28;20203;-78
2022/05/25 02:59:02;;;;;;;6.30;5.90;;;13.30;99.90;;;;;;5012065;28;20212;-78
2022/05/25 03:01:29;;;;;;;6.73;6.23;;;13.40;99.90;;;;;;5038886;28;20296;-80
2022/05/25 03:03:56;;;;;;;6.93;6.40;;;13.30;99.90;;;;;;5042837;28;20323;-79
2022/05/25 03:06:25;;;;;;;6.80;6.40;;;13.30;99.90;;;;;;5042061;28;20196;-79
2022/05/25 03:08:52;;;;;;;7.30;6.90;;;13.30;99.90;;;;;;5026552;28;20587;-77
2022/05/25 03:11:19;;;;;;;6.50;6.10;;;13.30;99.90;;;;;;5039797;28;20210;-78
2022/05/25 03:13:48;;;;;;;6.43;6.03;;;13.30;99.90;;;;;;5021130;28;20442;-78
2022/05/25 03:16:18;;;;;;;6.73;6.33;;;13.30;99.90;;;;;;5022224;28;20201;-79
2022/05/25 03:18:46;;;;;;;6.33;6.00;;;13.30;99.90;;;;;;5044255;28;20204;-79
2022/05/25 03:21:13;;;;;;;6.70;6.20;;;13.20;99.90;;;;;;5021056;28;20205;-79
2022/05/25 03:23:41;;;;;;;6.60;6.10;;;13.20;99.90;;;;;;5025715;28;20221;-78
2022/05/25 03:26:08;;;;;;;6.90;6.40;;;13.20;99.90;;;;;;5037093;28;20203;-79
2022/05/25 03:28:36;;;;;;;6.87;6.37;;;13.10;99.90;;;;;;5026956;28;20232;-81
2022/05/25 03:31:04;;;;;;;6.77;6.37;;;13.10;99.90;;;;;;5007826;28;20303;-77
2022/05/25 03:33:32;;;;;;;6.67;6.17;;;13.10;99.90;;;;;;5028206;28;20246;-79
2022/05/25 03:35:59;;;;;;;7.10;6.53;;;13.10;99.90;;;;;;5039937;28;20209;-79
2022/05/25 03:38:27;;;;;;;7.70;7.20;;;13.00;99.90;;;;;;5017677;28;20691;-77
2022/05/25 03:40:56;;;;;;;7.07;6.67;;;13.10;99.90;;;;;;5020615;28;20242;-78
2022/05/25 03:43:23;;;;;;;6.73;6.33;;;13.10;99.90;;;;;;5022299;28;20240;-81
2022/05/25 03:45:50;;;;;;;6.93;6.53;;;13.10;99.90;;;;;;5030917;28;20235;-79
2022/05/25 03:48:18;;;;;;;7.10;6.70;;;13.10;99.90;;;;;;5022039;28;20207;-80
2022/05/25 03:50:45;;;;;;;7.23;6.80;;;13.10;99.90;;;;;;5017162;28;20727;-81
2022/05/25 03:53:14;;;;;;;7.00;6.60;;;13.00;99.90;;;;;;5032348;28;20613;-80
2022/05/25 03:55:42;;;;;;;7.20;6.63;;;13.00;99.90;;;;;;5040597;28;20203;-79
2022/05/25 03:58:11;;;;;;;7.00;6.50;;;13.00;99.90;;;;;;5031617;28;20251;-80
2022/05/25 04:00:38;;;;;;;8.00;7.50;;;13.00;99.90;;;;;;5028345;28;20668;-79
2022/05/25 04:03:06;;;;;;;6.60;6.20;;;13.00;99.90;;;;;;5019804;28;20216;-78
2022/05/25 04:05:34;;;;;;;6.80;6.40;;;13.10;99.90;;;;;;5021102;28;20293;-80
2022/05/25 04:08:01;;;;;;;7.67;7.07;;;13.10;99.90;;;;;;5010350;28;20212;-80
2022/05/25 04:10:29;;;;;;;6.90;6.50;;;13.10;99.90;;;;;;5014302;28;20212;-80
2022/05/25 04:12:56;;;;;;;7.40;6.73;;;13.20;99.90;;;;;;5037418;28;20225;-79
2022/05/25 04:15:26;;;;;;;7.17;6.57;;;13.20;99.90;;;;;;5019083;28;20208;-79
2022/05/25 04:17:54;;;;;;;7.20;6.70;;;13.20;99.90;;;;;;5018871;28;20235;-79
2022/05/25 04:20:22;;;;;;;7.73;7.17;;;13.20;99.90;;;;;;5018949;28;20677;-79
2022/05/25 04:22:50;;;;;;;10.30;7.23;;;13.10;99.90;;;;;;5018937;28;20758;-79
2022/05/25 04:25:19;;;;;;;7.47;6.97;;;13.20;99.90;;;;;;5022551;28;20204;-79
2022/05/25 04:27:48;;;;;;;7.47;6.97;;;13.10;99.90;;;;;;5013278;28;20691;-79
2022/05/25 04:30:17;;;;;;;7.37;6.77;;;13.10;99.90;;;;;;5019778;28;20214;-79
2022/05/25 04:32:46;;;;;;;7.53;7.03;;;13.20;99.90;;;;;;5038712;28;20313;-79
2022/05/25 04:35:14;;;;;;;7.40;6.90;;;13.20;99.90;;;;;;5028284;28;20200;-79
2022/05/25 04:37:52;;;;;;;7.47;6.93;;;13.20;99.90;;;;;;5018298;28;20292;-79
2022/05/25 04:40:26;;;;;;;8.20;7.60;;;13.30;99.90;;;;;;5020318;28;20455;-79
2022/05/25 04:42:55;;;;;;;7.97;7.27;;;13.30;99.90;;;;;;5020186;28;20217;-78
2022/05/25 04:45:22;;;;;;;7.63;7.13;;;13.40;99.90;;;;;;5020908;28;20204;-79
2022/05/25 04:47:51;;;;;;;7.40;6.90;;;13.40;99.90;;;;;;5037219;28;20203;-79
2022/05/25 04:50:20;;;;;;;7.60;7.00;;;13.40;99.90;;;;;;5021555;28;20212;-79
2022/05/25 04:52:47;;;;;;;7.23;6.83;;;13.40;99.90;;;;;;5017709;28;20219;-79
2022/05/25 04:57:55;;;;;;;7.23;6.80;;;13.50;99.90;;;;;;5021999;28;20660;-78
2022/05/25 05:00:22;;;;;;;7.50;7.00;;;13.50;99.90;;;;;;5032951;28;20236;-80
2022/05/25 05:02:51;;;;;;;7.83;7.30;;;13.60;99.90;;;;;;5036705;28;20590;-79
2022/05/25 05:05:18;;;;;;;7.10;6.63;;;13.60;99.90;;;;;;5020179;28;20208;-82
2022/05/25 05:07:46;;;;;;;7.60;7.10;;;13.60;99.90;;;;;;5025728;28;20295;-80
2022/05/25 05:10:13;;;;;;;8.47;7.97;;;13.70;99.90;;;;;;5019122;28;20546;-79
2022/05/25 05:12:41;;;;;;;6.97;6.57;;;13.80;99.90;;;;;;5023528;28;20212;-81
2022/05/25 05:15:08;;;;;;;2.60;2.40;;;13.90;99.90;;;;;;5038974;28;20220;-82
2022/05/25 05:17:35;;;;;;;2.10;2.00;;;14.00;99.90;;;;;;5040722;28;20219;-79
2022/05/25 05:20:18;;;;;;;2.30;2.10;;;14.10;99.90;;;;;;5019185;28;20204;-78
2022/05/25 05:22:45;;;;;;;2.33;2.13;;;14.20;99.90;;;;;;5040444;28;20216;-78
2022/05/25 05:25:12;;;;;;;5.13;4.83;;;14.30;99.90;;;;;;5019131;28;20214;-79
2022/05/25 05:27:39;;;;;;;8.30;7.70;;;14.40;99.90;;;;;;5042709;28;20216;-78
2022/05/25 05:30:08;;;;;;;7.33;6.93;;;14.40;99.90;;;;;;5019287;28;20210;-79
2022/05/25 05:32:35;;;;;;;5.77;5.20;;;14.50;99.90;;;;;;5022442;28;20220;-78
2022/05/25 05:35:03;;;;;;;2.80;2.40;;;14.70;99.90;;;;;;5022352;28;20220;-78
2022/05/25 05:37:35;;;;;;;7.33;6.83;;;14.90;99.90;;;;;;5037541;28;20209;-79
2022/05/25 05:40:04;;;;;;;2.77;2.57;;;15.10;99.90;;;;;;5039113;28;20568;-80
2022/05/25 05:42:33;;;;;;;2.30;2.10;;;15.40;99.90;;;;;;5025912;28;20598;-81
2022/05/25 05:45:05;;;;;;;2.93;2.70;;;16.00;99.90;;;;;;5048747;28;20232;-79
2022/05/25 05:47:36;;;;;;;7.37;6.87;;;16.30;99.90;;;;;;5024201;28;20553;-81
2022/05/25 05:50:05;;;;;;;5.90;5.40;;;17.10;99.90;;;;;;5013926;28;20208;-82
2022/05/25 05:52:35;;;;;;;6.00;5.60;;;18.00;99.90;;;;;;5012510;28;20616;-81
2022/05/25 05:55:03;;;;;;;4.93;4.53;;;19.10;99.90;;;;;;5028085;28;20391;-82
2022/05/25 05:57:33;;;;;;;2.87;2.60;;;19.90;99.90;;;;;;5018992;28;20197;-82
2022/05/25 05:59:59;;;;;;;5.93;5.13;;;20.60;99.90;;;;;;5033310;28;20214;-82
2022/05/25 06:02:26;;;;;;;2.90;2.70;;;20.70;99.90;;;;;;5031761;28;20216;-82
2022/05/25 06:04:53;;;;;;;3.20;2.90;;;20.20;99.90;;;;;;5031151;28;20286;-82
2022/05/25 06:07:20;;;;;;;4.20;3.90;;;19.50;99.90;;;;;;5016211;28;20307;-83
2022/05/25 06:09:49;;;;;;;2.27;1.90;;;19.10;99.90;;;;;;5021342;28;20205;-82
2022/05/25 06:12:16;;;;;;;3.27;3.07;;;18.60;99.90;;;;;;5039320;28;20225;-82
2022/05/25 06:14:43;;;;;;;3.80;3.17;;;18.40;99.90;;;;;;5041446;28;20232;-82
2022/05/25 06:19:54;;;;;;;2.07;1.60;;;18.60;99.90;;;;;;5023312;28;20191;-81
2022/05/25 06:22:22;;;;;;;4.80;4.50;;;18.90;99.90;;;;;;5014124;28;20215;-81
2022/05/25 06:24:52;;;;;;;2.30;2.20;;;19.00;99.90;;;;;;5027082;28;20201;-82
2022/05/25 06:27:21;;;;;;;3.83;3.60;;;19.30;99.90;;;;;;5016636;28;20200;-82
2022/05/25 06:29:49;;;;;;;4.13;3.93;;;19.90;99.90;;;;;;5044637;28;20214;-83
2022/05/25 06:32:19;;;;;;;5.90;5.60;;;20.60;99.90;;;;;;5033607;28;20225;-82
2022/05/25 06:34:48;;;;;;;2.47;2.10;;;20.60;99.90;;;;;;5025452;28;20216;-85
2022/05/25 06:37:16;;;;;;;6.80;6.40;;;20.70;99.90;;;;;;5043582;28;20210;-85
2022/05/25 06:39:43;;;;;;;7.10;6.60;;;21.20;99.90;;;;;;5041503;28;20657;-84
2022/05/25 06:42:12;;;;;;;3.83;3.63;;;21.50;99.90;;;;;;5023468;28;20201;-83
2022/05/25 06:44:45;;;;;;;29.20;8.67;;;21.90;99.90;;;;;;5014878;28;20188;-82
2022/05/25 06:47:15;;;;;;;6.80;6.20;;;22.20;99.90;;;;;;5027760;28;20212;-84
2022/05/25 06:49:42;;;;;;;6.33;5.93;;;21.90;99.90;;;;;;5014131;28;20280;-82
2022/05/25 06:52:10;;;;;;;6.00;5.60;;;21.70;99.90;;;;;;5014529;28;20201;-85
2022/05/25 06:54:37;;;;;;;4.20;3.87;;;22.20;99.90;;;;;;5013644;28;20239;-85
2022/05/25 06:57:05;;;;;;;5.13;4.80;;;22.50;99.90;;;;;;5014598;28;20200;-83
2022/05/25 06:59:33;;;;;;;5.13;4.80;;;22.90;99.90;;;;;;5011065;28;20204;-84
2022/05/25 07:02:00;;;;;;;4.93;4.63;;;23.20;99.90;;;;;;5040693;28;20658;-84
2022/05/25 07:04:27;;;;;;;5.03;4.73;;;23.20;99.90;;;;;;5023684;28;20546;-84
2022/05/25 07:06:54;;;;;;;2.67;2.47;;;23.40;99.90;;;;;;5042033;28;20291;-84
2022/05/25 07:09:21;;;;;;;3.87;3.67;;;23.60;99.90;;;;;;5022239;28;20686;-84
2022/05/25 07:11:51;;;;;;;3.40;3.20;;;23.90;99.90;;;;;;5040623;28;20645;-84
2022/05/25 07:14:18;;;;;;;3.20;3.00;;;23.90;99.90;;;;;;5035103;28;20231;-83
2022/05/25 07:16:46;;;;;;;4.00;3.80;;;24.10;99.90;;;;;;5023163;28;20200;-82
2022/05/25 07:19:13;;;;;;;5.37;4.97;;;24.10;99.90;;;;;;5040374;28;20218;-82
2022/05/25 07:21:40;;;;;;;4.37;2.23;;;24.30;99.90;;;;;;5022363;28;20210;-83
2022/05/25 07:24:08;;;;;;;4.30;3.87;;;24.40;99.90;;;;;;5024040;28;20226;-83
2022/05/25 07:26:35;;;;;;;4.37;4.07;;;24.50;99.90;;;;;;5021764;28;20693;-81
2022/05/25 07:29:02;;;;;;;3.77;1.80;;;24.30;99.80;;;;;;5027095;28;20662;-82
2022/05/25 07:31:37;;;;;;;2.90;2.10;;;23.80;99.90;;;;;;5014296;28;20303;-80
2022/05/25 07:34:09;;;;;;;2.93;1.90;;;23.50;99.90;;;;;;5041803;28;20224;-81
2022/05/25 07:36:37;;;;;;;2.27;2.17;;;23.80;99.90;;;;;;5027815;28;20200;-81
2022/05/25 07:39:07;;;;;;;3.40;2.40;;;24.10;99.90;;;;;;5032897;28;20205;-81
2022/05/25 07:41:39;;;;;;;2.90;1.70;;;24.50;99.30;;;;;;5039192;28;20199;-80
2022/05/25 07:44:08;;;;;;;3.37;3.17;;;24.90;98.30;;;;;;5017752;28;20315;-81
2022/05/25 07:46:35;;;;;;;3.83;3.53;;;24.80;97.10;;;;;;5010013;28;20205;-81
2022/05/25 07:49:03;;;;;;;6.00;5.70;;;24.40;98.60;;;;;;5011280;28;20201;-81
2022/05/25 07:51:31;;;;;;;2.73;2.53;;;24.60;98.80;;;;;;5015525;28;20686;-81
2022/05/25 07:54:00;;;;;;;4.17;3.93;;;24.70;99.20;;;;;;5019682;28;20604;-81
2022/05/25 07:56:30;;;;;;;5.80;5.30;;;25.00;99.30;;;;;;5024302;28;20232;-81
2022/05/25 07:58:57;;;;;;;1.60;1.50;;;24.90;98.10;;;;;;5020725;28;20266;-82
2022/05/25 08:07:00;;;;;;;4.33;2.60;;;24.80;99.10;;;;;;5010460;28;20201;-81
2022/05/25 08:09:28;;;;;;;5.60;5.20;;;24.60;98.50;;;;;;5021899;28;20196;-81
2022/05/25 08:11:55;;;;;;;5.10;4.77;;;24.60;96.80;;;;;;5036633;28;20200;-81
2022/05/25 08:14:25;;;;;;;1.70;1.57;;;24.60;97.90;;;;;;5022255;28;20220;-82
2022/05/25 08:16:52;;;;;;;1.97;1.80;;;24.70;97.20;;;;;;5035880;28;20295;-82
2022/05/25 08:19:19;;;;;;;4.90;4.57;;;24.90;98.40;;;;;;5020313;28;20227;-81
2022/05/25 08:21:47;;;;;;;1.70;1.60;;;24.80;97.70;;;;;;5016239;28;20303;-82
2022/05/25 08:24:15;;;;;;;2.23;1.60;;;24.80;98.80;;;;;;5038940;28;20219;-82
2022/05/25 08:26:43;;;;;;;1.70;1.60;;;24.50;96.90;;;;;;5019779;28;20218;-81
2022/05/25 08:29:10;;;;;;;1.50;1.40;;;24.40;98.90;;;;;;5031318;28;20694;-82
2022/05/25 08:31:37;;;;;;;2.33;2.23;;;24.90;97.30;;;;;;5028051;28;20220;-81
2022/05/25 08:34:05;;;;;;;2.87;1.60;;;24.80;97.20;;;;;;5020202;28;20219;-82
2022/05/25 08:36:32;;;;;;;4.37;4.13;;;24.80;97.50;;;;;;5020963;28;20205;-82
2022/05/25 08:38:59;;;;;;;3.63;3.43;;;25.00;97.20;;;;;;5019075;28;20283;-79
2022/05/25 08:41:38;;;;;;;1.70;1.63;;;25.10;97.40;;;;;;5019627;28;20661;-84
2022/05/25 08:44:07;;;;;;;5.63;5.33;;;24.90;94.90;;;;;;5019428;28;20220;-83
2022/05/25 08:46:34;;;;;;;5.37;5.07;;;24.90;94.70;;;;;;5039893;28;20200;-85
2022/05/25 08:49:02;;;;;;;5.13;4.87;;;24.70;95.10;;;;;;5021620;28;20906;-84
2022/05/25 08:51:31;;;;;;;3.90;3.70;;;25.20;94.60;;;;;;5016514;28;20204;-83
2022/05/25 08:53:59;;;;;;;4.33;3.13;;;24.90;94.40;;;;;;5031423;28;20227;-83
2022/05/25 08:56:35;;;;;;;4.63;4.33;;;24.20;95.70;;;;;;5035888;28;20203;-83
2022/05/25 08:59:06;;;;;;;2.77;2.50;;;24.00;96.30;;;;;;5028898;28;20593;-83
2022/05/25 09:01:41;;;;;;;1.70;1.60;;;24.50;95.50;;;;;;5019732;28;20218;-84
2022/05/25 09:04:13;;;;;;;1.73;1.60;;;24.60;94.60;;;;;;5025832;28;20273;-83
2022/05/25 09:06:47;;;;;;;1.70;1.60;;;24.60;95.00;;;;;;5023688;28;20207;-83
2022/05/25 09:09:24;;;;;;;2.10;1.60;;;25.10;96.80;;;;;;5029002;28;20201;-83
2022/05/25 09:11:57;;;;;;;1.77;1.60;;;25.50;94.60;;;;;;5036069;28;20673;-85
2022/05/25 09:14:31;;;;;;;5.83;5.20;;;25.10;94.20;;;;;;5019583;28;20230;-82
2022/05/25 09:17:01;;;;;;;3.73;3.53;;;25.40;94.70;;;;;;5018888;28;20232;-84
2022/05/25 09:19:31;;;;;;;1.67;1.53;;;25.70;94.90;;;;;;5022481;28;20199;-83
2022/05/25 09:22:01;;;;;;;5.07;4.77;;;26.10;94.50;;;;;;5020827;28;20734;-83
2022/05/25 09:24:29;;;;;;;4.13;3.83;;;26.50;93.20;;;;;;5040474;28;20278;-77
2022/05/25 09:26:59;;;;;;;5.77;5.37;;;26.00;93.30;;;;;;5024242;28;20196;-77
2022/05/25 09:29:27;;;;;;;4.07;3.77;;;25.80;94.30;;;;;;5035601;28;20215;-77
2022/05/25 09:31:58;;;;;;;2.13;1.67;;;26.10;94.30;;;;;;5035039;28;20205;-80
2022/05/25 09:34:38;;;;;;;3.50;1.50;;;25.80;93.10;;;;;;5024194;28;20204;-81
2022/05/25 09:37:13;;;;;;;1.90;1.60;;;25.60;94.70;;;;;;5039071;28;20208;-80
2022/05/25 09:39:44;;;;;;;1.90;1.70;;;25.60;92.30;;;;;;5019774;28;20202;-80
2022/05/25 09:42:17;;;;;;;1.63;1.50;;;25.50;93.50;;;;;;5025195;28;20210;-79
2022/05/25 09:44:48;;;;;;;1.70;1.60;;;25.40;94.40;;;;;;5020345;28;20286;-77
2022/05/25 09:47:23;;;;;;;1.77;1.40;;;25.10;95.00;;;;;;5032593;28;20208;-77
2022/05/25 09:49:52;;;;;;;1.50;1.50;;;24.90;94.30;;;;;;5034452;28;20201;-80
2022/05/25 09:52:23;;;;;;;1.60;1.50;;;24.30;94.30;;;;;;5038770;28;20673;-80
2022/05/25 09:54:56;;;;;;;5.40;5.00;;;24.10;95.60;;;;;;5022194;28;20216;-80
2022/05/25 09:57:30;;;;;;;2.23;2.03;;;24.70;95.80;;;;;;5027846;28;20559;-80
2022/05/25 10:00:01;;;;;;;1.93;1.83;;;24.90;94.20;;;;;;5042162;28;20207;-80
2022/05/25 10:02:33;;;;;;;2.10;2.00;;;24.40;94.80;;;;;;5024864;28;20348;-78
2022/05/25 10:05:13;;;;;;;3.60;2.70;;;24.30;95.40;;;;;;5042117;28;20291;-79
2022/05/25 10:07:49;;;;;;;4.70;4.30;;;24.60;95.00;;;;;;5021504;28;20211;-79
2022/05/25 10:10:23;;;;;;;5.00;4.70;;;25.30;94.80;;;;;;5034816;28;20201;-80
2022/05/25 10:12:59;;;;;;;5.00;4.50;;;26.00;94.60;;;;;;5039834;28;20226;-80
2022/05/25 10:15:31;;;;;;;4.97;4.60;;;26.10;92.50;;;;;;5024853;28;20275;-79
2022/05/25 10:17:59;;;;;;;5.60;5.30;;;25.70;93.80;;;;;;5017191;28;20577;-80
2022/05/25 10:20:28;;;;;;;5.50;5.20;;;25.30;94.00;;;;;;5023288;28;20278;-79
2022/05/25 10:23:05;;;;;;;5.50;5.10;;;25.10;93.10;;;;;;5020656;28;20211;-80
2022/05/25 10:25:40;;;;;;;5.93;5.30;;;24.90;93.60;;;;;;5033418;28;20257;-80
2022/05/25 10:28:20;;;;;;;5.60;5.30;;;24.90;93.50;;;;;;5025008;28;20212;-79
2022/05/25 10:36:49;;;;;;;5.07;4.80;;;24.60;94.60;;;;;;5027764;28;20246;-80
2022/05/25 10:39:19;;;;;;;5.10;4.80;;;24.70;94.50;;;;;;5018271;28;20210;-80
2022/05/25 10:41:59;;;;;;;5.10;4.80;;;25.00;94.80;;;;;;5038428;28;20188;-80
2022/05/25 10:44:32;;;;;;;5.00;4.70;;;25.30;94.40;;;;;;5021518;28;20198;-79
2022/05/25 10:46:59;;;;;;;5.60;5.20;;;25.60;93.90;;;;;;5021319;28;20354;-79
2022/05/25 10:49:34;;;;;;;2.77;2.50;;;26.00;93.40;;;;;;5023232;28;20724;-79
2022/05/25 10:52:07;;;;;;;5.00;4.70;;;26.00;91.20;;;;;;5037777;28;20565;-79
2022/05/25 10:54:50;;;;;;;2.60;2.13;;;25.80;92.10;;;;;;5024201;28;20216;-80
2022/05/25 10:57:59;;;;;;;1.63;1.50;;;25.60;91.70;;;;;;5021979;28;20196;-79
2022/05/25 11:00:39;;;;;;;4.90;4.63;;;25.50;92.40;;;;;;5020152;28;20211;-80
2022/05/25 11:03:28;;;;;;;4.20;1.60;;;25.10;92.70;;;;;;5020909;28;20705;-79
2022/05/25 11:06:01;;;;;;;2.73;2.57;;;25.00;94.20;;;;;;5010881;28;20196;-79
2022/05/25 11:08:44;;;;;;;5.83;5.17;;;25.10;93.70;;;;;;5022885;28;20204;-79
2022/05/25 11:11:19;;;;;;;5.33;5.03;;;24.80;93.60;;;;;;5032793;28;20201;-79
2022/05/25 11:14:04;;;;;;;3.20;2.90;;;24.40;93.30;;;;;;5030571;28;20216;-80
2022/05/25 11:16:42;;;;;;;4.67;4.37;;;24.00;94.90;;;;;;5021692;28;20206;-77
2022/05/25 11:19:52;;;;;;;5.30;5.00;;;23.90;95.50;;;;;;5020513;28;20236;-81
2022/05/25 11:22:34;;;;;;;2.47;2.27;;;23.80;95.10;;;;;;5024487;28;20320;-79
2022/05/25 11:25:29;;;;;;;1.53;1.40;;;23.70;94.70;;;;;;5010136;28;20669;-82
2022/05/25 11:28:18;;;;;;;5.70;5.30;;;23.50;94.10;;;;;;5026980;28;20205;-77
2022/05/25 11:31:10;;;;;;;5.07;4.80;;;24.00;94.80;;;;;;5007393;28;20203;-82
2022/05/25 11:33:52;;;;;;;1.63;1.50;;;24.30;93.70;;;;;;5020422;28;20216;-82
2022/05/25 11:36:32;;;;;;;2.50;2.23;;;24.90;94.10;;;;;;5025269;28;20208;-81
2022/05/25 11:39:08;;;;;;;2.10;2.00;;;25.10;93.80;;;;;;5016592;28;20200;-81
2022/05/25 11:41:43;;;;;;;3.57;3.27;;;25.10;93.20;;;;;;5018409;28;20628;-81
2022/05/25 11:44:33;;;;;;;2.23;1.60;;;24.80;92.10;;;;;;5039819;28;20581;-79
2022/05/25 11:47:08;;;;;;;1.60;1.50;;;24.50;93.50;;;;;;5014240;28;20258;-80
2022/05/25 11:50:00;;;;;;;2.30;1.47;;;24.20;92.20;;;;;;5016243;28;20243;-81
2022/05/25 11:52:46;;;;;;;4.80;4.50;;;24.00;93.30;;;;;;5011051;28;20226;-79
2022/05/25 11:55:21;;;;;;;3.83;3.63;;;23.80;93.80;;;;;;5020552;28;20566;-80
2022/05/25 11:57:59;;;;;;;3.53;3.33;;;23.60;93.30;;;;;;5018038;28;20254;-81
2022/05/25 12:00:57;;;;;;;5.30;5.00;;;23.30;92.00;;;;;;5022154;28;20562;-81
2022/05/25 12:04:06;;;;;;;2.80;2.53;;;23.10;92.60;;;;;;5034939;28;20221;-81
2022/05/25 12:06:56;;;;;;;3.00;2.90;;;23.20;93.60;;;;;;5036165;28;20798;-81
2022/05/25 12:09:45;;;;;;;5.40;5.10;;;23.40;91.90;;;;;;5022580;28;20199;-81
2022/05/25 12:12:18;;;;;;;1.57;1.40;;;23.50;92.90;;;;;;5029616;28;20272;-81
2022/05/25 12:15:02;;;;;;;1.70;1.60;;;23.70;92.80;;;;;;5020922;28;20201;-81
2022/05/25 12:17:38;;;;;;;1.60;1.50;;;23.40;93.30;;;;;;5029846;28;20679;-81
2022/05/25 12:20:09;;;;;;;5.93;4.47;;;23.10;93.90;;;;;;5021835;28;20247;-81
2022/05/25 12:22:38;;;;;;;1.97;1.77;;;22.90;94.60;;;;;;5022676;28;20220;-81
2022/05/25 12:25:09;;;;;;;2.27;2.13;;;22.70;94.80;;;;;;5039397;28;20611;-80
2022/05/25 12:27:41;;;;;;;4.60;4.40;;;22.60;94.60;;;;;;5022720;28;20194;-81
2022/05/25 12:30:11;;;;;;;5.10;4.77;;;22.40;95.20;;;;;;5039518;28;20203;-81
2022/05/25 12:32:40;;;;;;;1.43;1.43;;;22.50;96.00;;;;;;5017665;28;20296;-81
2022/05/25 12:35:11;;;;;;;1.60;1.50;;;22.70;94.60;;;;;;5027811;28;20208;-80
2022/05/25 12:37:43;;;;;;;1.60;1.50;;;22.70;94.80;;;;;;5026213;28;20195;-81
2022/05/25 12:40:12;;;;;;;1.60;1.50;;;22.80;95.20;;;;;;5011163;28;20201;-81
2022/05/25 12:42:42;;;;;;;1.60;1.50;;;22.70;94.90;;;;;;5009239;28;20213;-81
2022/05/25 12:50:58;;;;;;;1.60;1.50;;;22.30;95.60;;;;;;5026577;28;20200;-81
2022/05/25 12:53:34;;;;;;;2.43;1.70;;;22.40;95.60;;;;;;5035496;28;20366;-81
2022/05/25 12:56:05;;;;;;;2.73;2.53;;;22.60;94.70;;;;;;5035701;28;20220;-81
2022/05/25 12:58:35;;;;;;;2.40;1.93;;;22.60;94.90;;;;;;5022679;28;20250;-80
2022/05/25 13:01:05;;;;;;;1.43;1.33;;;22.70;94.90;;;;;;5013609;28;20213;-80
2022/05/25 13:03:41;;;;;;;1.67;1.57;;;22.60;94.60;;;;;;5026592;28;20717;-80
2022/05/25 13:06:09;;;;;;;1.67;1.57;;;22.40;94.20;;;;;;5020656;28;20206;-80
2022/05/25 13:09:09;;;;;;;1.50;1.40;;;22.40;94.60;;;;;;5024638;28;20200;-80
2022/05/25 13:11:39;;;;;;;1.47;1.37;;;22.60;94.40;;;;;;5031796;28;20204;-79
2022/05/25 13:14:44;;;;;;;1.40;1.30;;;22.80;94.80;;;;;;5022016;28;20227;-80
2022/05/25 13:17:42;;;;;;;5.47;5.17;;;23.10;93.50;;;;;;5035558;28;20222;-80
2022/05/25 13:20:15;;;;;;;4.13;3.93;;;23.20;93.70;;;;;;5023500;28;20803;-81
2022/05/25 13:22:42;;;;;;;2.10;1.50;;;23.40;92.50;;;;;;5027056;28;20219;-80
2022/05/25 13:25:32;;;;;;;1.20;1.20;;;23.50;92.50;;;;;;5024807;28;20196;-81
2022/05/25 13:28:20;;;;;;;1.50;1.40;;;23.60;91.60;;;;;;5012004;28;20207;-82
2022/05/25 13:30:57;;;;;;;2.10;2.00;;;23.50;92.70;;;;;;5014865;28;20270;-82
2022/05/25 13:33:28;;;;;;;3.80;3.60;;;23.40;92.30;;;;;;5034063;28;20227;-82
2022/05/25 13:35:58;;;;;;;4.53;4.10;;;23.30;92.40;;;;;;5036000;28;20282;-82
2022/05/25 13:38:37;;;;;;;3.60;3.40;;;23.40;92.60;;;;;;5021703;28;20578;-82
2022/05/25 13:41:12;;;;;;;1.77;1.60;;;23.50;93.00;;;;;;5037736;28;20205;-81